This is the latest recevied weather packets stored in our database for station/object W4ZHA. If no packets are shown the sender has not sent any weather packets the latest 10 day(s).
| Time | Temp. | Humidity | Pressure | Rain* | Wind** | Luminosity | Snow |
|---|---|---|---|---|---|---|---|
| 1788023778 | 30.56° C | 57% | 1021.3 hPa | 0 mm | - | 455 W/m² | - |
| 1788023473 | 31.67° C | 56% | 1021.3 hPa | 0 mm | - | 448 W/m² | - |
| 1788023168 | 30.56° C | 57% | 1021.3 hPa | 0 mm | - | 444 W/m² | - |
| 1788022869 | 30.56° C | 57% | 1021.3 hPa | 0 mm | - | 461 W/m² | - |
| 1788022565 | 31.67° C | 56% | 1021.8 hPa | 0 mm | - | 444 W/m² | - |
| 1788022261 | 31.67° C | 55% | 1021.3 hPa | 0 mm | - | 429 W/m² | - |
| 1788021959 | 30° C | 58% | 1021.8 hPa | 0 mm | - | 425 W/m² | - |
| 1788021654 | 30.56° C | 57% | 1021.8 hPa | 0 mm | - | 415 W/m² | - |
| 1788021351 | 29.44° C | 59% | 1021.8 hPa | 0 mm | - | 417 W/m² | - |
| 1788021047 | 29.44° C | 59% | 1021.8 hPa | 0 mm | - | 413 W/m² | - |
| 1788020743 | 30.56° C | 57% | 1021.8 hPa | 0 mm | - | 396 W/m² | - |
| 1788020438 | 30° C | 58% | 1021.8 hPa | 0 mm | - | 390 W/m² | - |
| 1788020133 | 28.33° C | 62% | 1021.8 hPa | 0 mm | - | 379 W/m² | - |
| 1788019828 | 28.89° C | 59% | 1021.8 hPa | 0 mm | - | 366 W/m² | - |
| 1788019527 | 29.44° C | 60% | 1021.8 hPa | 0 mm | - | 90 W/m² | - |
| 1788019221 | 28.89° C | 61% | 1021.8 hPa | 0 mm | - | 90 W/m² | - |
| 1788018914 | 27.78° C | 63% | 1021.8 hPa | 0 mm | - | 141 W/m² | - |
| 1788018609 | 28.89° C | 60% | 1022.1 hPa | 0 mm | - | 111 W/m² | - |
| 1788018308 | 27.78° C | 63% | 1021.8 hPa | 0 mm | - | 136 W/m² | - |
| 1788018004 | 27.78° C | 62% | 1022.1 hPa | 0 mm | - | 100 W/m² | - |
| 1788017700 | 27.78° C | 62% | 1021.8 hPa | 0 mm | - | 86 W/m² | - |
| 1788017396 | 27.78° C | 62% | 1021.8 hPa | 0 mm | - | 79 W/m² | - |
| 1788017093 | 27.22° C | 63% | 1021.8 hPa | 0 mm | - | 75 W/m² | - |
| 1788016792 | 27.78° C | 63% | 1021.8 hPa | 0 mm | - | 73 W/m² | - |
| 1788016490 | 27.22° C | 63% | 1021.8 hPa | 0 mm | - | 71 W/m² | - |
* Rain latest hour (hover to see other rain measurements)
** Current wind speed in m/s (hover to see current wind gust speed)